Cave City, Kentucky
Current Conditions -  °F | °C
As of 9:55 AM on Thursday 27 Nov 2014 (Local Time) from KGLW Reporting Station
Overcast Overcast  
Wind Chill: 25°   Ceiling: 1700
Heat Index: 33°   Visibility: 10mi
Dew Point: 29°   Wind: 9mph
Humidity: 85%   Direction: 310°NW
Pressure: 30.36"   Gusts: NA
Location:  37.14°N, 85.96°W
Report Text: KGLW 271555Z AUTO 31008KT 10SM OVC017 01/M02 A3036 RMK AO2 T00051018
Loading
Personal Weather Stations






























Interactive Weather Map New forecast layout! Learn more

10-Day Weather Forecast

Advertisements
Track Severe Weather on mobile